Canmore, Canada
Current Conditions -  °F | °C
As of 10:00 AM on Saturday 25 Oct 2014 (Local Time) from CYBW Reporting Station
Overcast Overcast  
Wind Chill: 30°   Ceiling: 5500
Heat Index: 36°   Visibility: 9mi
Dew Point: 23°   Wind: 7mph
Humidity: 60%   Direction: 130°SE
Pressure: 29.9"   Gusts: NA
Location:  51.09°N, 115.36°W
Report Text: CYBW 251600Z AUTO 13006KT 9SM BKN055 OVC072 02/M05 A2990 RMK PRESFR SLP169
Loading
Personal Weather Stations






























Interactive Weather Map New forecast layout! Learn more

10-Day Weather Forecast

Advertisements
Track Severe Weather on mobile